sensor_id;sensor_type;location;lat;lon;timestamp;pressure;altitude;pressure_sealevel;temperature;humidity
11085;BME280;5596;46.826;8.650;2023-02-04T00:00:09;97868.63;;;4.15;100.00
11085;BME280;5596;46.826;8.650;2023-02-04T00:02:38;97867.63;;;4.16;100.00
11085;BME280;5596;46.826;8.650;2023-02-04T00:05:06;97872.44;;;4.12;100.00
11085;BME280;5596;46.826;8.650;2023-02-04T00:07:34;97860.88;;;4.12;100.00
11085;BME280;5596;46.826;8.650;2023-02-04T00:10:02;97854.56;;;4.13;100.00
11085;BME280;5596;46.826;8.650;2023-02-04T00:12:29;97842.03;;;4.13;100.00
11085;BME280;5596;46.826;8.650;2023-02-04T00:14:56;97845.53;;;4.14;100.00
11085;BME280;5596;46.826;8.650;2023-02-04T00:17:23;97849.44;;;4.19;100.00
11085;BME280;5596;46.826;8.650;2023-02-04T00:19:50;97856.31;;;4.22;100.00
11085;BME280;5596;46.826;8.650;2023-02-04T00:22:17;97839.44;;;4.22;100.00
11085;BME280;5596;46.826;8.650;2023-02-04T00:24:48;97843.88;;;4.13;100.00
11085;BME280;5596;46.826;8.650;2023-02-04T00:27:15;97841.88;;;4.15;100.00
11085;BME280;5596;46.826;8.650;2023-02-04T00:29:42;97840.50;;;4.11;100.00
11085;BME280;5596;46.826;8.650;2023-02-04T00:32:11;97839.97;;;4.07;100.00
11085;BME280;5596;46.826;8.650;2023-02-04T00:34:38;97830.66;;;3.94;100.00
11085;BME280;5596;46.826;8.650;2023-02-04T00:37:06;97848.28;;;3.87;100.00
11085;BME280;5596;46.826;8.650;2023-02-04T00:39:33;97845.38;;;3.80;100.00
11085;BME280;5596;46.826;8.650;2023-02-04T00:42:02;97833.84;;;3.79;100.00
11085;BME280;5596;46.826;8.650;2023-02-04T00:44:30;97838.50;;;3.77;100.00
11085;BME280;5596;46.826;8.650;2023-02-04T00:46:57;97842.56;;;3.82;100.00
11085;BME280;5596;46.826;8.650;2023-02-04T00:49:24;97839.72;;;3.83;100.00
11085;BME280;5596;46.826;8.650;2023-02-04T00:51:52;97838.72;;;3.84;100.00
11085;BME280;5596;46.826;8.650;2023-02-04T00:54:19;97836.38;;;3.81;100.00
11085;BME280;5596;46.826;8.650;2023-02-04T00:56:46;97845.69;;;3.77;100.00
11085;BME280;5596;46.826;8.650;2023-02-04T00:59:15;97837.13;;;3.73;100.00
11085;BME280;5596;46.826;8.650;2023-02-04T01:01:43;97832.31;;;3.77;100.00
11085;BME280;5596;46.826;8.650;2023-02-04T01:04:10;97829.78;;;3.75;100.00
11085;BME280;5596;46.826;8.650;2023-02-04T01:06:37;97839.50;;;3.76;100.00
11085;BME280;5596;46.826;8.650;2023-02-04T01:09:07;97848.81;;;3.72;100.00
11085;BME280;5596;46.826;8.650;2023-02-04T01:11:35;97854.69;;;3.76;100.00
11085;BME280;5596;46.826;8.650;2023-02-04T01:14:02;97854.38;;;3.79;100.00
11085;BME280;5596;46.826;8.650;2023-02-04T01:16:30;97859.72;;;3.79;100.00
11085;BME280;5596;46.826;8.650;2023-02-04T01:18:57;97853.25;;;3.82;100.00
11085;BME280;5596;46.826;8.650;2023-02-04T01:21:25;97846.00;;;3.74;100.00
11085;BME280;5596;46.826;8.650;2023-02-04T01:23:52;97863.47;;;3.86;100.00
11085;BME280;5596;46.826;8.650;2023-02-04T01:26:19;97862.78;;;3.84;100.00
11085;BME280;5596;46.826;8.650;2023-02-04T01:28:47;97864.59;;;3.84;100.00
11085;BME280;5596;46.826;8.650;2023-02-04T01:31:14;97855.84;;;3.73;100.00
11085;BME280;5596;46.826;8.650;2023-02-04T01:33:43;97854.31;;;3.71;100.00
11085;BME280;5596;46.826;8.650;2023-02-04T01:36:11;97846.59;;;3.68;100.00
11085;BME280;5596;46.826;8.650;2023-02-04T01:38:38;97846.72;;;3.66;100.00
11085;BME280;5596;46.826;8.650;2023-02-04T01:41:05;97852.75;;;3.68;100.00
11085;BME280;5596;46.826;8.650;2023-02-04T01:43:33;97843.06;;;3.67;100.00
11085;BME280;5596;46.826;8.650;2023-02-04T01:46:00;97848.72;;;3.64;100.00
11085;BME280;5596;46.826;8.650;2023-02-04T01:48:27;97853.97;;;3.56;100.00
11085;BME280;5596;46.826;8.650;2023-02-04T01:51:01;97855.34;;;3.60;100.00
11085;BME280;5596;46.826;8.650;2023-02-04T01:53:29;97850.47;;;3.56;100.00
11085;BME280;5596;46.826;8.650;2023-02-04T01:55:57;97852.78;;;3.41;100.00
11085;BME280;5596;46.826;8.650;2023-02-04T01:58:25;97854.88;;;3.47;100.00
11085;BME280;5596;46.826;8.650;2023-02-04T02:00:52;97856.66;;;3.29;100.00
11085;BME280;5596;46.826;8.650;2023-02-04T02:03:19;97860.31;;;3.28;100.00
11085;BME280;5596;46.826;8.650;2023-02-04T02:05:48;97854.97;;;3.28;100.00
11085;BME280;5596;46.826;8.650;2023-02-04T02:08:18;97857.66;;;3.28;100.00
11085;BME280;5596;46.826;8.650;2023-02-04T02:10:47;97858.03;;;3.33;100.00
11085;BME280;5596;46.826;8.650;2023-02-04T02:13:16;97856.41;;;3.22;100.00
11085;BME280;5596;46.826;8.650;2023-02-04T02:15:44;97852.47;;;3.17;100.00
11085;BME280;5596;46.826;8.650;2023-02-04T02:18:14;97850.81;;;3.16;100.00
11085;BME280;5596;46.826;8.650;2023-02-04T02:20:43;97847.59;;;3.12;100.00
11085;BME280;5596;46.826;8.650;2023-02-04T02:23:15;97847.63;;;3.02;100.00
11085;BME280;5596;46.826;8.650;2023-02-04T02:25:46;97840.50;;;2.93;100.00
11085;BME280;5596;46.826;8.650;2023-02-04T02:28:22;97838.31;;;2.79;100.00
11085;BME280;5596;46.826;8.650;2023-02-04T02:30:50;97853.06;;;2.74;100.00
11085;BME280;5596;46.826;8.650;2023-02-04T02:33:19;97846.78;;;2.65;100.00
11085;BME280;5596;46.826;8.650;2023-02-04T02:35:48;97839.47;;;2.67;100.00
11085;BME280;5596;46.826;8.650;2023-02-04T02:38:17;97841.19;;;2.58;100.00
11085;BME280;5596;46.826;8.650;2023-02-04T02:40:46;97838.66;;;2.47;100.00
11085;BME280;5596;46.826;8.650;2023-02-04T02:43:18;97838.41;;;2.41;100.00
11085;BME280;5596;46.826;8.650;2023-02-04T02:45:46;97828.59;;;2.41;100.00
11085;BME280;5596;46.826;8.650;2023-02-04T02:48:13;97844.00;;;2.47;100.00
11085;BME280;5596;46.826;8.650;2023-02-04T02:50:41;97839.22;;;2.51;100.00
11085;BME280;5596;46.826;8.650;2023-02-04T02:53:10;97831.38;;;2.40;100.00
11085;BME280;5596;46.826;8.650;2023-02-04T02:55:40;97831.13;;;2.43;100.00
11085;BME280;5596;46.826;8.650;2023-02-04T02:58:12;97831.13;;;2.43;100.00
11085;BME280;5596;46.826;8.650;2023-02-04T03:00:41;97829.44;;;2.42;100.00
11085;BME280;5596;46.826;8.650;2023-02-04T03:03:13;97826.75;;;2.42;100.00
11085;BME280;5596;46.826;8.650;2023-02-04T03:05:43;97827.75;;;2.21;100.00
11085;BME280;5596;46.826;8.650;2023-02-04T03:08:13;97829.03;;;2.17;100.00
11085;BME280;5596;46.826;8.650;2023-02-04T03:10:41;97830.88;;;2.17;100.00
11085;BME280;5596;46.826;8.650;2023-02-04T03:13:14;97818.00;;;2.12;100.00
11085;BME280;5596;46.826;8.650;2023-02-04T03:15:42;97825.41;;;2.18;100.00
11085;BME280;5596;46.826;8.650;2023-02-04T03:18:12;97811.78;;;2.21;100.00
11085;BME280;5596;46.826;8.650;2023-02-04T03:20:41;97811.50;;;2.24;100.00
11085;BME280;5596;46.826;8.650;2023-02-04T03:23:09;97801.13;;;2.21;100.00
11085;BME280;5596;46.826;8.650;2023-02-04T03:25:38;97792.44;;;2.19;100.00
11085;BME280;5596;46.826;8.650;2023-02-04T03:28:05;97800.69;;;2.26;100.00
11085;BME280;5596;46.826;8.650;2023-02-04T03:30:34;97798.88;;;2.26;100.00
11085;BME280;5596;46.826;8.650;2023-02-04T03:33:01;97799.72;;;2.27;100.00
11085;BME280;5596;46.826;8.650;2023-02-04T03:35:28;97811.50;;;2.24;100.00
11085;BME280;5596;46.826;8.650;2023-02-04T03:37:55;97807.00;;;2.25;100.00
11085;BME280;5596;46.826;8.650;2023-02-04T03:40:25;97815.56;;;2.28;100.00
11085;BME280;5596;46.826;8.650;2023-02-04T03:42:52;97808.44;;;2.19;100.00
11085;BME280;5596;46.826;8.650;2023-02-04T03:45:19;97805.06;;;2.17;100.00
11085;BME280;5596;46.826;8.650;2023-02-04T03:47:48;97800.56;;;2.18;100.00
11085;BME280;5596;46.826;8.650;2023-02-04T03:50:15;97798.59;;;2.30;100.00
11085;BME280;5596;46.826;8.650;2023-02-04T03:52:42;97797.19;;;2.35;100.00
11085;BME280;5596;46.826;8.650;2023-02-04T03:55:10;97784.44;;;2.29;100.00
11085;BME280;5596;46.826;8.650;2023-02-04T03:57:40;97769.13;;;2.31;100.00
11085;BME280;5596;46.826;8.650;2023-02-04T04:00:08;97781.44;;;2.42;100.00
11085;BME280;5596;46.826;8.650;2023-02-04T04:02:39;97776.00;;;2.34;100.00
11085;BME280;5596;46.826;8.650;2023-02-04T04:05:08;97795.22;;;2.37;100.00
11085;BME280;5596;46.826;8.650;2023-02-04T04:07:35;97780.34;;;2.35;100.00
11085;BME280;5596;46.826;8.650;2023-02-04T04:10:08;97777.81;;;2.33;100.00
11085;BME280;5596;46.826;8.650;2023-02-04T04:12:35;97780.94;;;2.28;100.00
11085;BME280;5596;46.826;8.650;2023-02-04T04:15:03;97792.56;;;2.37;100.00
11085;BME280;5596;46.826;8.650;2023-02-04T04:17:30;97783.28;;;2.32;100.00
11085;BME280;5596;46.826;8.650;2023-02-04T04:19:57;97770.78;;;2.42;100.00
11085;BME280;5596;46.826;8.650;2023-02-04T04:22:26;97768.81;;;2.44;100.00
11085;BME280;5596;46.826;8.650;2023-02-04T04:24:53;97762.19;;;2.48;100.00
11085;BME280;5596;46.826;8.650;2023-02-04T04:27:20;97764.84;;;2.48;100.00
11085;BME280;5596;46.826;8.650;2023-02-04T04:29:47;97778.63;;;2.53;100.00
11085;BME280;5596;46.826;8.650;2023-02-04T04:32:14;97758.97;;;2.54;100.00
11085;BME280;5596;46.826;8.650;2023-02-04T04:34:44;97757.56;;;2.50;100.00
11085;BME280;5596;46.826;8.650;2023-02-04T04:37:11;97769.47;;;2.55;100.00
11085;BME280;5596;46.826;8.650;2023-02-04T04:39:40;97750.84;;;2.46;100.00
11085;BME280;5596;46.826;8.650;2023-02-04T04:42:07;97752.78;;;2.53;100.00
11085;BME280;5596;46.826;8.650;2023-02-04T04:44:34;97757.81;;;2.56;100.00
11085;BME280;5596;46.826;8.650;2023-02-04T04:47:01;97746.03;;;2.59;100.00
11085;BME280;5596;46.826;8.650;2023-02-04T04:49:29;97753.84;;;2.70;100.00
11085;BME280;5596;46.826;8.650;2023-02-04T04:51:56;97753.28;;;2.66;100.00
11085;BME280;5596;46.826;8.650;2023-02-04T04:54:23;97756.78;;;2.67;100.00
11085;BME280;5596;46.826;8.650;2023-02-04T04:56:51;97760.91;;;2.61;100.00
11085;BME280;5596;46.826;8.650;2023-02-04T04:59:18;97755.84;;;2.58;100.00
11085;BME280;5596;46.826;8.650;2023-02-04T05:01:45;97750.66;;;2.57;100.00
11085;BME280;5596;46.826;8.650;2023-02-04T05:04:12;97756.41;;;2.62;100.00
11085;BME280;5596;46.826;8.650;2023-02-04T05:06:39;97745.44;;;2.65;100.00
11085;BME280;5596;46.826;8.650;2023-02-04T05:09:06;97747.53;;;2.71;100.00
11085;BME280;5596;46.826;8.650;2023-02-04T05:11:34;97733.63;;;2.67;100.00
11085;BME280;5596;46.826;8.650;2023-02-04T05:14:02;97742.84;;;2.73;100.00
11085;BME280;5596;46.826;8.650;2023-02-04T05:16:30;97729.13;;;2.68;100.00
11085;BME280;5596;46.826;8.650;2023-02-04T05:19:00;97736.69;;;2.73;100.00
11085;BME280;5596;46.826;8.650;2023-02-04T05:21:27;97736.53;;;2.74;100.00
11085;BME280;5596;46.826;8.650;2023-02-04T05:23:54;97738.66;;;2.80;100.00
11085;BME280;5596;46.826;8.650;2023-02-04T05:26:21;97732.75;;;2.77;100.00
11085;BME280;5596;46.826;8.650;2023-02-04T05:28:48;97730.47;;;2.82;100.00
11085;BME280;5596;46.826;8.650;2023-02-04T05:31:16;97726.28;;;2.79;100.00
11085;BME280;5596;46.826;8.650;2023-02-04T05:33:43;97734.06;;;2.90;100.00
11085;BME280;5596;46.826;8.650;2023-02-04T05:36:10;97728.16;;;2.96;100.00
11085;BME280;5596;46.826;8.650;2023-02-04T05:38:38;97708.38;;;2.89;100.00
11085;BME280;5596;46.826;8.650;2023-02-04T05:41:05;97722.22;;;3.02;100.00
11085;BME280;5596;46.826;8.650;2023-02-04T05:43:32;97706.81;;;2.96;100.00
11085;BME280;5596;46.826;8.650;2023-02-04T05:46:00;97708.03;;;3.02;100.00
11085;BME280;5596;46.826;8.650;2023-02-04T05:48:28;97711.91;;;3.08;100.00
11085;BME280;5596;46.826;8.650;2023-02-04T05:50:56;97706.91;;;3.04;100.00
11085;BME280;5596;46.826;8.650;2023-02-04T05:53:23;97697.06;;;3.05;100.00
11085;BME280;5596;46.826;8.650;2023-02-04T05:55:50;97705.91;;;3.06;100.00
11085;BME280;5596;46.826;8.650;2023-02-04T05:58:17;97711.34;;;3.14;100.00
11085;BME280;5596;46.826;8.650;2023-02-04T06:00:47;97718.03;;;3.18;100.00
11085;BME280;5596;46.826;8.650;2023-02-04T06:03:15;97716.75;;;3.22;100.00
11085;BME280;5596;46.826;8.650;2023-02-04T06:05:45;97713.47;;;3.28;100.00
11085;BME280;5596;46.826;8.650;2023-02-04T06:08:12;97708.06;;;3.20;100.00
11085;BME280;5596;46.826;8.650;2023-02-04T06:10:40;97708.59;;;3.23;100.00
11085;BME280;5596;46.826;8.650;2023-02-04T06:13:07;97726.34;;;3.32;100.00
11085;BME280;5596;46.826;8.650;2023-02-04T06:15:34;97706.16;;;3.30;100.00
11085;BME280;5596;46.826;8.650;2023-02-04T06:18:01;97711.88;;;3.35;100.00
11085;BME280;5596;46.826;8.650;2023-02-04T06:20:28;97702.34;;;3.32;100.00
11085;BME280;5596;46.826;8.650;2023-02-04T06:22:57;97692.50;;;3.33;100.00
11085;BME280;5596;46.826;8.650;2023-02-04T06:25:24;97700.59;;;3.41;100.00
11085;BME280;5596;46.826;8.650;2023-02-04T06:27:51;97703.25;;;3.41;100.00
11085;BME280;5596;46.826;8.650;2023-02-04T06:30:18;97690.75;;;3.41;100.00
11085;BME280;5596;46.826;8.650;2023-02-04T06:32:45;97698.47;;;3.45;100.00
11085;BME280;5596;46.826;8.650;2023-02-04T06:35:12;97682.22;;;3.56;100.00
11085;BME280;5596;46.826;8.650;2023-02-04T06:37:41;97675.47;;;3.52;100.00
11085;BME280;5596;46.826;8.650;2023-02-04T06:40:11;97674.06;;;3.57;100.00
11085;BME280;5596;46.826;8.650;2023-02-04T06:42:38;97664.88;;;3.60;100.00
11085;BME280;5596;46.826;8.650;2023-02-04T06:45:06;97664.41;;;3.64;100.00
11085;BME280;5596;46.826;8.650;2023-02-04T06:47:33;97656.22;;;3.66;100.00
11085;BME280;5596;46.826;8.650;2023-02-04T06:50:00;97661.41;;;3.67;100.00
11085;BME280;5596;46.826;8.650;2023-02-04T06:52:27;97664.09;;;3.67;100.00
11085;BME280;5596;46.826;8.650;2023-02-04T06:54:54;97650.00;;;3.57;100.00
11085;BME280;5596;46.826;8.650;2023-02-04T06:57:23;97646.50;;;3.57;100.00
11085;BME280;5596;46.826;8.650;2023-02-04T06:59:50;97653.72;;;3.64;100.00
11085;BME280;5596;46.826;8.650;2023-02-04T07:02:17;97642.50;;;3.61;100.00
11085;BME280;5596;46.826;8.650;2023-02-04T07:04:44;97632.81;;;3.60;100.00
11085;BME280;5596;46.826;8.650;2023-02-04T07:07:11;97630.84;;;3.62;100.00
11085;BME280;5596;46.826;8.650;2023-02-04T07:09:41;97631.78;;;3.78;100.00
11085;BME280;5596;46.826;8.650;2023-02-04T07:12:08;97640.84;;;3.86;100.00
11085;BME280;5596;46.826;8.650;2023-02-04T07:14:37;97617.59;;;3.78;100.00
11085;BME280;5596;46.826;8.650;2023-02-04T07:17:04;97625.81;;;3.85;100.00
11085;BME280;5596;46.826;8.650;2023-02-04T07:19:34;97632.88;;;3.94;100.00
11085;BME280;5596;46.826;8.650;2023-02-04T07:22:02;97635.56;;;3.94;100.00
11085;BME280;5596;46.826;8.650;2023-02-04T07:24:31;97628.19;;;3.88;100.00
11085;BME280;5596;46.826;8.650;2023-02-04T07:26:58;97643.22;;;3.89;100.00
11085;BME280;5596;46.826;8.650;2023-02-04T07:29:25;97647.81;;;4.04;100.00
11085;BME280;5596;46.826;8.650;2023-02-04T07:31:54;97635.25;;;3.97;100.00
11085;BME280;5596;46.826;8.650;2023-02-04T07:34:23;97655.69;;;4.06;100.00
11085;BME280;5596;46.826;8.650;2023-02-04T07:36:50;97648.72;;;4.13;100.00
11085;BME280;5596;46.826;8.650;2023-02-04T07:39:17;97644.91;;;4.15;100.00
11085;BME280;5596;46.826;8.650;2023-02-04T07:41:44;97654.59;;;4.16;100.00
11085;BME280;5596;46.826;8.650;2023-02-04T07:44:13;97649.69;;;4.12;100.00
11085;BME280;5596;46.826;8.650;2023-02-04T07:46:40;97659.66;;;4.28;100.00
11085;BME280;5596;46.826;8.650;2023-02-04T07:49:11;97652.16;;;4.31;100.00
11085;BME280;5596;46.826;8.650;2023-02-04T07:51:38;97638.94;;;4.30;100.00
11085;BME280;5596;46.826;8.650;2023-02-04T07:54:05;97641.81;;;4.36;100.00
11085;BME280;5596;46.826;8.650;2023-02-04T07:56:32;97654.06;;;4.47;100.00
11085;BME280;5596;46.826;8.650;2023-02-04T07:58:59;97661.78;;;4.50;100.00
11085;BME280;5596;46.826;8.650;2023-02-04T08:01:26;97663.38;;;4.77;100.00
11085;BME280;5596;46.826;8.650;2023-02-04T08:03:54;97664.44;;;4.84;100.00
11085;BME280;5596;46.826;8.650;2023-02-04T08:06:22;97661.53;;;4.77;100.00
11085;BME280;5596;46.826;8.650;2023-02-04T08:08:49;97657.44;;;4.99;100.00
11085;BME280;5596;46.826;8.650;2023-02-04T08:11:17;97663.50;;;5.17;100.00
11085;BME280;5596;46.826;8.650;2023-02-04T08:13:44;97651.47;;;5.38;100.00
11085;BME280;5596;46.826;8.650;2023-02-04T08:16:11;97661.88;;;5.49;100.00
11085;BME280;5596;46.826;8.650;2023-02-04T08:18:38;97653.16;;;5.55;100.00
11085;BME280;5596;46.826;8.650;2023-02-04T08:21:05;97656.34;;;5.66;100.00
11085;BME280;5596;46.826;8.650;2023-02-04T08:23:33;97653.81;;;5.73;100.00
11085;BME280;5596;46.826;8.650;2023-02-04T08:26:07;97646.44;;;5.83;100.00
11085;BME280;5596;46.826;8.650;2023-02-04T08:28:34;97644.13;;;5.88;100.00
11085;BME280;5596;46.826;8.650;2023-02-04T08:31:01;97651.16;;;5.89;100.00
11085;BME280;5596;46.826;8.650;2023-02-04T08:33:28;97651.84;;;5.91;100.00
11085;BME280;5596;46.826;8.650;2023-02-04T08:35:56;97654.34;;;6.01;100.00
11085;BME280;5596;46.826;8.650;2023-02-04T08:38:23;97635.22;;;5.96;100.00
11085;BME280;5596;46.826;8.650;2023-02-04T08:40:52;97629.38;;;5.92;100.00
11085;BME280;5596;46.826;8.650;2023-02-04T08:43:19;97641.25;;;6.06;100.00
11085;BME280;5596;46.826;8.650;2023-02-04T08:45:46;97646.63;;;6.06;100.00
11085;BME280;5596;46.826;8.650;2023-02-04T08:48:13;97646.75;;;6.13;100.00
11085;BME280;5596;46.826;8.650;2023-02-04T08:50:40;97629.88;;;6.12;100.00
11085;BME280;5596;46.826;8.650;2023-02-04T08:53:07;97647.78;;;6.20;100.00
11085;BME280;5596;46.826;8.650;2023-02-04T08:55:34;97647.09;;;6.26;100.00
11085;BME280;5596;46.826;8.650;2023-02-04T08:58:02;97650.25;;;6.21;100.00
11085;BME280;5596;46.826;8.650;2023-02-04T09:00:32;97655.31;;;6.24;100.00
11085;BME280;5596;46.826;8.650;2023-02-04T09:02:59;97641.41;;;6.21;100.00
11085;BME280;5596;46.826;8.650;2023-02-04T09:05:26;97659.50;;;6.27;100.00
11085;BME280;5596;46.826;8.650;2023-02-04T09:07:53;97669.38;;;6.26;100.00
11085;BME280;5596;46.826;8.650;2023-02-04T09:10:20;97664.03;;;6.26;100.00
11085;BME280;5596;46.826;8.650;2023-02-04T09:12:47;97671.06;;;6.27;100.00
11085;BME280;5596;46.826;8.650;2023-02-04T09:15:22;97684.47;;;6.35;100.00
11085;BME280;5596;46.826;8.650;2023-02-04T09:17:51;97681.59;;;6.37;100.00
11085;BME280;5596;46.826;8.650;2023-02-04T09:20:26;97677.72;;;6.39;100.00
11085;BME280;5596;46.826;8.650;2023-02-04T09:22:53;97686.59;;;6.40;100.00
11085;BME280;5596;46.826;8.650;2023-02-04T09:25:20;97671.22;;;6.34;100.00
11085;BME280;5596;46.826;8.650;2023-02-04T09:27:47;97690.50;;;6.37;100.00
11085;BME280;5596;46.826;8.650;2023-02-04T09:30:15;97680.75;;;6.36;100.00
11085;BME280;5596;46.826;8.650;2023-02-04T09:32:43;97696.47;;;6.47;100.00
11085;BME280;5596;46.826;8.650;2023-02-04T09:35:10;97683.25;;;6.46;100.00
11085;BME280;5596;46.826;8.650;2023-02-04T09:37:37;97702.03;;;6.54;100.00
11085;BME280;5596;46.826;8.650;2023-02-04T09:40:05;97685.44;;;6.42;100.00
11085;BME280;5596;46.826;8.650;2023-02-04T09:42:33;97701.34;;;6.52;100.00
11085;BME280;5596;46.826;8.650;2023-02-04T09:45:01;97705.19;;;6.50;100.00
11085;BME280;5596;46.826;8.650;2023-02-04T09:47:31;97706.56;;;6.45;100.00
11085;BME280;5596;46.826;8.650;2023-02-04T09:50:00;97706.38;;;6.47;100.00
11085;BME280;5596;46.826;8.650;2023-02-04T09:52:27;97707.22;;;6.47;100.00
11085;BME280;5596;46.826;8.650;2023-02-04T09:54:55;97720.81;;;6.54;100.00
11085;BME280;5596;46.826;8.650;2023-02-04T09:57:22;97708.03;;;6.56;100.00
11085;BME280;5596;46.826;8.650;2023-02-04T09:59:50;97702.34;;;6.51;100.00
11085;BME280;5596;46.826;8.650;2023-02-04T10:02:24;97699.03;;;6.41;100.00
11085;BME280;5596;46.826;8.650;2023-02-04T10:04:54;97700.38;;;6.45;100.00
11085;BME280;5596;46.826;8.650;2023-02-04T10:07:24;97707.56;;;6.53;100.00
11085;BME280;5596;46.826;8.650;2023-02-04T10:09:52;97701.00;;;6.47;100.00
11085;BME280;5596;46.826;8.650;2023-02-04T10:12:20;97700.50;;;6.52;100.00
11085;BME280;5596;46.826;8.650;2023-02-04T10:14:48;97709.03;;;6.63;100.00
11085;BME280;5596;46.826;8.650;2023-02-04T10:17:19;97715.91;;;6.58;100.00
11085;BME280;5596;46.826;8.650;2023-02-04T10:19:48;97697.94;;;6.66;100.00
11085;BME280;5596;46.826;8.650;2023-02-04T10:22:16;97695.22;;;6.74;100.00
11085;BME280;5596;46.826;8.650;2023-02-04T10:24:45;97706.09;;;6.81;100.00
11085;BME280;5596;46.826;8.650;2023-02-04T10:27:13;97699.59;;;6.75;100.00
11085;BME280;5596;46.826;8.650;2023-02-04T10:29:42;97715.69;;;6.75;100.00
11085;BME280;5596;46.826;8.650;2023-02-04T10:32:25;97718.03;;;6.78;100.00
11085;BME280;5596;46.826;8.650;2023-02-04T10:34:56;97721.75;;;6.77;100.00
11085;BME280;5596;46.826;8.650;2023-02-04T10:37:24;97708.16;;;6.79;100.00
11085;BME280;5596;46.826;8.650;2023-02-04T10:39:53;97696.44;;;6.72;100.00
11085;BME280;5596;46.826;8.650;2023-02-04T10:42:22;97710.47;;;6.82;100.00
11085;BME280;5596;46.826;8.650;2023-02-04T10:44:49;97709.97;;;6.87;100.00
11085;BME280;5596;46.826;8.650;2023-02-04T10:47:18;97721.34;;;6.97;100.00
11085;BME280;5596;46.826;8.650;2023-02-04T10:49:54;97717.97;;;6.95;100.00
11085;BME280;5596;46.826;8.650;2023-02-04T10:52:24;97724.16;;;7.03;100.00
11085;BME280;5596;46.826;8.650;2023-02-04T10:54:53;97714.63;;;6.93;100.00
11085;BME280;5596;46.826;8.650;2023-02-04T10:57:23;97721.69;;;6.94;100.00
11085;BME280;5596;46.826;8.650;2023-02-04T10:59:56;97729.03;;;7.00;100.00
11085;BME280;5596;46.826;8.650;2023-02-04T11:02:42;97729.50;;;7.11;100.00
11085;BME280;5596;46.826;8.650;2023-02-04T11:05:13;97721.94;;;7.07;100.00
11085;BME280;5596;46.826;8.650;2023-02-04T11:07:41;97723.63;;;7.08;100.00
11085;BME280;5596;46.826;8.650;2023-02-04T11:10:15;97731.03;;;7.06;100.00
11085;BME280;5596;46.826;8.650;2023-02-04T11:12:44;97724.31;;;7.02;100.00
11085;BME280;5596;46.826;8.650;2023-02-04T11:18:27;97723.03;;;6.90;100.00
11085;BME280;5596;46.826;8.650;2023-02-04T11:20:57;97724.69;;;6.91;100.00
11085;BME280;5596;46.826;8.650;2023-02-04T11:23:35;97722.38;;;6.88;100.00
11085;BME280;5596;46.826;8.650;2023-02-04T11:26:07;97710.63;;;6.80;100.00
11085;BME280;5596;46.826;8.650;2023-02-04T11:28:44;97722.03;;;6.82;100.00
11085;BME280;5596;46.826;8.650;2023-02-04T11:31:26;97715.66;;;6.83;100.00
11085;BME280;5596;46.826;8.650;2023-02-04T11:34:10;97719.03;;;6.86;100.00
11085;BME280;5596;46.826;8.650;2023-02-04T11:36:50;97732.78;;;6.82;100.00
11085;BME280;5596;46.826;8.650;2023-02-04T11:39:21;97721.38;;;6.80;100.00
11085;BME280;5596;46.826;8.650;2023-02-04T11:41:51;97724.38;;;6.86;100.00
11085;BME280;5596;46.826;8.650;2023-02-04T11:44:19;97719.34;;;6.82;100.00
11085;BME280;5596;46.826;8.650;2023-02-04T11:46:49;97712.72;;;6.70;100.00
11085;BME280;5596;46.826;8.650;2023-02-04T11:49:18;97723.06;;;6.73;100.00
11085;BME280;5596;46.826;8.650;2023-02-04T11:51:46;97729.97;;;6.76;100.00
11085;BME280;5596;46.826;8.650;2023-02-04T11:54:15;97729.97;;;6.76;100.00
11085;BME280;5596;46.826;8.650;2023-02-04T11:56:44;97729.28;;;6.74;100.00
11085;BME280;5596;46.826;8.650;2023-02-04T11:59:13;97727.13;;;6.69;100.00
11085;BME280;5596;46.826;8.650;2023-02-04T12:01:42;97735.50;;;6.74;100.00
11085;BME280;5596;46.826;8.650;2023-02-04T12:04:21;97734.16;;;6.78;100.00
11085;BME280;5596;46.826;8.650;2023-02-04T12:06:56;97733.78;;;6.81;100.00
11085;BME280;5596;46.826;8.650;2023-02-04T12:09:25;97731.13;;;6.73;100.00
11085;BME280;5596;46.826;8.650;2023-02-04T12:11:56;97729.44;;;6.80;100.00
11085;BME280;5596;46.826;8.650;2023-02-04T12:14:31;97735.63;;;6.81;100.00
11085;BME280;5596;46.826;8.650;2023-02-04T12:16:58;97736.13;;;6.84;100.00
11085;BME280;5596;46.826;8.650;2023-02-04T12:19:27;97724.38;;;6.86;100.00
11085;BME280;5596;46.826;8.650;2023-02-04T12:21:57;97737.94;;;6.92;100.00
11085;BME280;5596;46.826;8.650;2023-02-04T12:24:26;97743.16;;;6.94;100.00
11085;BME280;5596;46.826;8.650;2023-02-04T12:26:53;97738.63;;;6.94;100.00
11085;BME280;5596;46.826;8.650;2023-02-04T12:29:20;97740.81;;;6.91;100.00
11085;BME280;5596;46.826;8.650;2023-02-04T12:31:48;97734.78;;;6.89;100.00
11085;BME280;5596;46.826;8.650;2023-02-04T12:34:15;97741.16;;;6.96;100.00
11085;BME280;5596;46.826;8.650;2023-02-04T12:36:42;97736.09;;;6.93;100.00
11085;BME280;5596;46.826;8.650;2023-02-04T12:39:09;97746.19;;;6.91;100.00
11085;BME280;5596;46.826;8.650;2023-02-04T12:41:36;97738.81;;;6.84;100.00
11085;BME280;5596;46.826;8.650;2023-02-04T12:44:03;97741.69;;;6.83;100.00
11085;BME280;5596;46.826;8.650;2023-02-04T12:46:30;97733.47;;;6.84;100.00
11085;BME280;5596;46.826;8.650;2023-02-04T12:48:59;97737.13;;;6.92;100.00
11085;BME280;5596;46.826;8.650;2023-02-04T12:51:26;97730.44;;;6.88;100.00
11085;BME280;5596;46.826;8.650;2023-02-04T12:53:53;97739.13;;;6.90;100.00
11085;BME280;5596;46.826;8.650;2023-02-04T12:56:20;97734.25;;;6.93;100.00
11085;BME280;5596;46.826;8.650;2023-02-04T12:58:48;97736.94;;;6.93;100.00
11085;BME280;5596;46.826;8.650;2023-02-04T13:01:15;97734.56;;;6.98;100.00
11085;BME280;5596;46.826;8.650;2023-02-04T13:03:42;97743.97;;;7.02;100.00
11085;BME280;5596;46.826;8.650;2023-02-04T13:06:11;97750.34;;;7.01;100.00
11085;BME280;5596;46.826;8.650;2023-02-04T13:08:38;97746.16;;;6.99;100.00
11085;BME280;5596;46.826;8.650;2023-02-04T13:11:05;97738.28;;;6.97;100.00
11085;BME280;5596;46.826;8.650;2023-02-04T13:13:32;97752.34;;;6.99;100.00
11085;BME280;5596;46.826;8.650;2023-02-04T13:15:59;97742.81;;;6.97;100.00
11085;BME280;5596;46.826;8.650;2023-02-04T13:18:26;97732.09;;;6.97;100.00